createdAt,value
2018-09-13T00:00:17.975Z,0
2018-09-13T00:05:15.422Z,0
2018-09-13T00:10:17.046Z,0
2018-09-13T00:15:14.911Z,0
2018-09-13T00:20:14.084Z,0
2018-09-13T00:25:14.156Z,0
2018-09-13T00:30:14.261Z,0
2018-09-13T00:35:14.257Z,0
2018-09-13T00:40:14.193Z,0
2018-09-13T00:45:13.988Z,0
2018-09-13T00:50:13.968Z,0
2018-09-13T00:55:16.714Z,0
2018-09-13T01:00:16.995Z,0
2018-09-13T01:05:14.832Z,0
2018-09-13T01:10:18.585Z,0
2018-09-13T01:15:13.842Z,0
2018-09-13T01:20:14.630Z,0
2018-09-13T01:25:14.078Z,0
2018-09-13T01:30:14.303Z,0
2018-09-13T01:35:13.462Z,0
2018-09-13T01:40:13.927Z,0
2018-09-13T01:45:13.791Z,0
2018-09-13T01:50:22.755Z,0
2018-09-13T01:55:14.845Z,0
2018-09-13T02:00:16.235Z,0
2018-09-13T02:05:17.868Z,0
2018-09-13T02:10:16.360Z,0
2018-09-13T02:15:14.199Z,0
2018-09-13T02:20:15.138Z,0
2018-09-13T02:25:13.663Z,0
2018-09-13T02:30:14.314Z,0
2018-09-13T02:35:14.633Z,0
2018-09-13T02:40:14.796Z,0
2018-09-13T02:45:31.541Z,0
2018-09-13T02:50:15.700Z,0
2018-09-13T02:55:22.504Z,0
2018-09-13T03:00:20.265Z,0
2018-09-13T03:05:22.247Z,0
2018-09-13T03:10:15.462Z,0
2018-09-13T03:15:14.450Z,0
2018-09-13T03:20:14.568Z,0
2018-09-13T03:25:13.723Z,0
2018-09-13T03:30:14.323Z,0
2018-09-13T03:35:14.107Z,0
2018-09-13T03:40:13.827Z,0
2018-09-13T03:45:14.023Z,0
2018-09-13T03:50:13.704Z,0
2018-09-13T03:55:16.969Z,0
2018-09-13T04:00:31.608Z,0
2018-09-13T04:05:14.956Z,0
2018-09-13T04:10:15.131Z,0
2018-09-13T04:15:14.137Z,0
2018-09-13T04:20:14.123Z,0
2018-09-13T04:25:13.771Z,0
2018-09-13T04:30:14.116Z,0
2018-09-13T04:35:13.594Z,0
2018-09-13T04:40:18.444Z,0
2018-09-13T04:45:13.418Z,0
2018-09-13T04:50:17.448Z,0
2018-09-13T04:55:13.686Z,0
2018-09-13T05:00:13.759Z,0
2018-09-13T05:05:16.277Z,0
2018-09-13T05:10:13.982Z,0.8
2018-09-13T05:25:26.848Z,6.7
2018-09-13T05:30:15.547Z,8.3
2018-09-13T05:35:15.296Z,10
2018-09-13T05:40:15.630Z,12.5
2018-09-13T05:45:15.330Z,14.2
2018-09-13T05:50:15.240Z,16.7
2018-09-13T05:55:15.522Z,18.3
2018-09-13T06:00:15.235Z,20
2018-09-13T06:05:15.389Z,21.7
2018-09-13T06:10:15.195Z,23.3
2018-09-13T06:15:15.482Z,25.8
2018-09-13T06:20:15.182Z,25.8
2018-09-13T06:25:15.415Z,32.5
2018-09-13T06:30:15.352Z,35
2018-09-13T06:35:15.161Z,38.3
2018-09-13T06:40:15.307Z,42.5
2018-09-13T06:45:15.291Z,45.8
2018-09-13T06:50:15.388Z,50
2018-09-13T06:55:15.160Z,99.2
2018-09-13T07:00:15.152Z,87.5
2018-09-13T07:05:15.396Z,65.8
2018-09-13T07:10:15.366Z,63.3
2018-09-13T07:15:15.162Z,65
2018-09-13T07:20:15.268Z,64.2
2018-09-13T07:25:15.050Z,65
2018-09-13T07:30:15.264Z,66.7
2018-09-13T07:35:15.417Z,68.3
2018-09-13T07:40:15.112Z,69.2
2018-09-13T07:45:15.221Z,70.8
2018-09-13T07:50:15.046Z,71.7
2018-09-13T07:55:15.131Z,72.5
2018-09-13T08:00:15.060Z,73.3
2018-09-13T08:05:15.050Z,74.2
2018-09-13T08:10:15.237Z,75
2018-09-13T08:15:15.224Z,75
2018-09-13T08:20:15.552Z,75.8
2018-09-13T08:25:15.172Z,75
2018-09-13T08:30:15.588Z,75.8
2018-09-13T08:35:15.223Z,77.5
2018-09-13T08:40:15.597Z,81.7
2018-09-13T08:45:15.022Z,82.5
2018-09-13T08:50:15.614Z,85.8
2018-09-13T08:55:15.163Z,97.5
2018-09-13T09:00:15.223Z,110
2018-09-13T09:05:15.287Z,110.8
2018-09-13T09:10:15.154Z,97.5
2018-09-13T09:15:14.957Z,93.3
2018-09-13T09:20:15.397Z,100
2018-09-13T09:25:14.959Z,94.2
2018-09-13T09:30:15.098Z,59.2
2018-09-13T09:35:14.976Z,96.7
2018-09-13T09:40:15.339Z,110
2018-09-13T09:45:15.010Z,124.2
2018-09-13T09:50:15.261Z,138.3
2018-09-13T09:55:15.293Z,95
2018-09-13T10:00:14.883Z,90
2018-09-13T10:05:15.178Z,88.3
2018-09-13T10:10:14.815Z,83.3
2018-09-13T10:15:14.919Z,82.5
2018-09-13T10:20:14.866Z,82.5
2018-09-13T10:25:14.849Z,84.2
2018-09-13T10:30:14.848Z,85
2018-09-13T10:35:14.997Z,85.8
2018-09-13T10:40:15.075Z,90
2018-09-13T10:45:15.049Z,115.8
2018-09-13T10:50:15.085Z,146.7
2018-09-13T10:55:15.062Z,170
2018-09-13T11:00:15.047Z,200.8
2018-09-13T11:05:15.131Z,219.2
2018-09-13T11:10:14.831Z,237.5
2018-09-13T11:15:15.030Z,258.3
2018-09-13T11:20:15.158Z,282.5
2018-09-13T11:25:15.071Z,292.5
2018-09-13T11:30:15.288Z,301.7
2018-09-13T11:35:14.839Z,310
2018-09-13T11:40:14.802Z,320.8
2018-09-13T11:45:15.075Z,353.3
2018-09-13T11:50:14.790Z,365
2018-09-13T11:55:14.817Z,373.3
2018-09-13T12:00:15.003Z,391.7
2018-09-13T12:05:14.709Z,401.7
2018-09-13T12:10:15.163Z,415
2018-09-13T12:15:14.748Z,431.7
2018-09-13T12:20:15.106Z,480
2018-09-13T12:25:14.945Z,112.5
2018-09-13T12:30:14.917Z,101.7
2018-09-13T12:35:14.808Z,215
2018-09-13T12:40:14.824Z,78.3
2018-09-13T12:45:14.611Z,592.5
2018-09-13T12:50:14.738Z,599.2
2018-09-13T12:55:15.029Z,657.5
2018-09-13T13:00:14.784Z,645
2018-09-13T13:05:14.957Z,655.8
2018-09-13T13:10:14.903Z,621.7
2018-09-13T13:15:14.825Z,554.2
2018-09-13T13:20:14.733Z,151.7
2018-09-13T13:25:14.753Z,577.5
2018-09-13T13:30:14.586Z,590
2018-09-13T13:35:14.585Z,587.5
2018-09-13T13:40:14.630Z,629.2
2018-09-13T13:45:14.869Z,589.2
2018-09-13T13:50:14.481Z,212.5
2018-09-13T13:55:14.786Z,582.5
2018-09-13T14:00:14.487Z,595
2018-09-13T14:05:14.786Z,621.7
2018-09-13T14:10:14.777Z,641.7
2018-09-13T14:15:14.807Z,693.3
2018-09-13T14:20:14.771Z,725
2018-09-13T14:25:14.850Z,621.7
2018-09-13T14:30:14.484Z,118.3
2018-09-13T14:35:14.709Z,118.3
2018-09-13T14:40:14.698Z,115
2018-09-13T14:45:14.732Z,136.7
2018-09-13T14:50:14.703Z,614.2
2018-09-13T14:55:14.743Z,633.3
2018-09-13T15:00:14.580Z,123.3
2018-09-13T15:05:14.697Z,125
2018-09-13T15:10:14.335Z,445.8
2018-09-13T15:15:14.544Z,179.2
2018-09-13T15:20:14.380Z,635.8
2018-09-13T15:25:14.497Z,612.5
2018-09-13T15:30:14.658Z,607.5
2018-09-13T15:35:14.481Z,101.7
2018-09-13T15:40:14.726Z,115
2018-09-13T15:45:14.732Z,82.5
2018-09-13T15:50:15.238Z,77.5
2018-09-13T15:55:15.242Z,82.5
2018-09-13T16:00:16.365Z,81.7
2018-09-13T16:05:14.413Z,227.5
2018-09-13T16:10:14.817Z,58.3
2018-09-13T16:15:14.633Z,62.5
2018-09-13T16:20:14.516Z,65.8
2018-09-13T16:25:14.381Z,72.5
2018-09-13T16:30:14.583Z,64.2
2018-09-13T16:35:14.771Z,59.2
2018-09-13T16:40:14.765Z,50
2018-09-13T16:45:14.299Z,44.2
2018-09-13T16:50:14.491Z,41.7
2018-09-13T16:55:14.317Z,38.3
2018-09-13T17:00:14.230Z,36.7
2018-09-13T17:05:14.481Z,32.5
2018-09-13T17:10:14.192Z,29.2
2018-09-13T17:15:14.457Z,28.3
2018-09-13T17:20:14.673Z,25.8
2018-09-13T17:25:15.061Z,24.2
2018-09-13T17:30:14.533Z,20.8
2018-09-13T17:35:14.152Z,15.8
2018-09-13T17:40:14.446Z,11.7
2018-09-13T17:45:14.377Z,9.2
2018-09-13T17:50:14.429Z,6.7
2018-09-13T17:55:14.470Z,4.2
2018-09-13T18:00:14.713Z,2.5
2018-09-13T18:05:14.400Z,1.7
2018-09-13T18:10:14.395Z,0
2018-09-13T18:15:14.548Z,0
2018-09-13T18:20:14.134Z,0
2018-09-13T18:25:14.400Z,0
2018-09-13T18:30:14.331Z,0
2018-09-13T18:35:14.116Z,0
2018-09-13T18:40:14.308Z,0
2018-09-13T18:45:14.167Z,0
2018-09-13T18:50:14.308Z,0
2018-09-13T18:55:14.388Z,0
2018-09-13T19:00:14.418Z,0
2018-09-13T19:05:14.394Z,0
2018-09-13T19:10:14.357Z,0
2018-09-13T19:15:14.271Z,0
2018-09-13T19:20:14.352Z,0
2018-09-13T19:25:14.099Z,0
2018-09-13T19:30:14.328Z,0
2018-09-13T19:35:14.270Z,0
2018-09-13T19:40:14.054Z,0
2018-09-13T19:45:14.282Z,0
2018-09-13T19:50:14.191Z,0
2018-09-13T19:55:14.291Z,0
2018-09-13T20:00:14.053Z,0
2018-09-13T20:05:14.321Z,0
2018-09-13T20:10:14.312Z,0
2018-09-13T20:15:14.196Z,0
2018-09-13T20:20:14.151Z,0
2018-09-13T20:25:14.253Z,0
2018-09-13T20:30:14.197Z,0
2018-09-13T20:35:14.229Z,0
2018-09-13T20:40:14.215Z,0
2018-09-13T20:45:13.871Z,0
2018-09-13T20:50:14.159Z,0
2018-09-13T20:55:13.991Z,0
2018-09-13T21:00:13.917Z,0
2018-09-13T21:05:14.253Z,0
2018-09-13T21:10:14.186Z,0
2018-09-13T21:15:14.216Z,0
2018-09-13T21:20:15.384Z,0
2018-09-13T21:25:13.961Z,0
2018-09-13T21:30:14.059Z,0
2018-09-13T21:35:14.481Z,0
2018-09-13T21:40:14.330Z,0
2018-09-13T21:45:13.856Z,0
2018-09-13T21:50:14.089Z,0
2018-09-13T21:55:13.819Z,0
2018-09-13T22:00:14.111Z,0
2018-09-13T22:05:13.992Z,0
2018-09-13T22:10:13.864Z,0
2018-09-13T22:15:14.061Z,0
2018-09-13T22:20:13.763Z,0
2018-09-13T22:25:13.942Z,0
2018-09-13T22:30:14.038Z,0
2018-09-13T22:35:14.076Z,0
2018-09-13T22:40:13.919Z,0
2018-09-13T22:45:13.800Z,0
2018-09-13T22:50:13.685Z,0
2018-09-13T22:55:14.045Z,0
2018-09-13T23:00:13.704Z,0
2018-09-13T23:05:14.160Z,0
2018-09-13T23:10:14.099Z,0
2018-09-13T23:15:14.111Z,0
2018-09-13T23:20:13.896Z,0
2018-09-13T23:25:13.762Z,0
2018-09-13T23:30:14.299Z,0
2018-09-13T23:35:14.146Z,0
2018-09-13T23:40:14.329Z,0
2018-09-13T23:45:14.529Z,0
2018-09-13T23:50:13.856Z,0
2018-09-13T23:55:13.702Z,0
